createdAt,value
2022-11-26T00:02:14.237Z,50.48
2022-11-26T00:04:40.748Z,50.59
2022-11-26T00:07:08.205Z,50.55
2022-11-26T00:12:29.785Z,50.69
2022-11-26T00:14:56.250Z,50.08
2022-11-26T00:17:22.711Z,51.39
2022-11-26T00:19:49.239Z,50.76
2022-11-26T00:22:15.911Z,50.85
2022-11-26T00:27:27.375Z,50.39
2022-11-26T00:29:53.811Z,50.57
2022-11-26T00:32:21.228Z,50.91
2022-11-26T00:34:47.683Z,50.55
2022-11-26T00:37:14.214Z,50.80
2022-11-26T00:42:24.630Z,50.73
2022-11-26T00:44:51.071Z,50.39
2022-11-26T00:47:18.423Z,50.79
2022-11-26T00:49:44.889Z,50.57
2022-11-26T00:52:11.363Z,51.04
2022-11-26T00:57:31.896Z,50.48
2022-11-26T00:59:58.354Z,50.63
2022-11-26T01:02:25.799Z,50.35
2022-11-26T01:04:53.271Z,50.85
2022-11-26T01:07:19.753Z,51.41
2022-11-26T01:12:31.327Z,50.79
2022-11-26T01:14:57.773Z,51.18
2022-11-26T01:17:25.203Z,51.28
2022-11-26T01:19:51.661Z,51.02
2022-11-26T01:22:19.055Z,51.04
2022-11-26T01:27:41.345Z,51.08
2022-11-26T01:30:08.747Z,51.08
2022-11-26T01:32:36.189Z,50.97
2022-11-26T01:35:02.695Z,51.06
2022-11-26T01:37:30.076Z,51.21
2022-11-26T01:42:40.599Z,51.19
2022-11-26T01:45:07.049Z,51.13
2022-11-26T01:47:34.430Z,51.07
2022-11-26T01:50:00.891Z,50.80
2022-11-26T01:52:27.361Z,51.18
2022-11-26T01:57:38.746Z,50.66
2022-11-26T02:00:05.260Z,50.96
2022-11-26T02:02:32.762Z,51.18
2022-11-26T02:04:59.344Z,50.98
2022-11-26T02:07:25.908Z,51.50
2022-11-26T02:12:48.579Z,51.18
2022-11-26T02:15:16.094Z,51.40
2022-11-26T02:17:42.624Z,51.31
2022-11-26T02:20:09.146Z,51.40
2022-11-26T02:22:35.668Z,51.18
2022-11-26T02:27:47.927Z,51.24
2022-11-26T02:30:14.375Z,51.22
2022-11-26T02:32:40.817Z,51.46
2022-11-26T02:35:07.282Z,51.60
2022-11-26T02:37:33.775Z,51.25
2022-11-26T02:42:44.356Z,51.09
2022-11-26T02:45:11.756Z,51.24
2022-11-26T02:47:38.203Z,51.42
2022-11-26T02:50:05.599Z,51.08
2022-11-26T02:52:32.073Z,51.24
2022-11-26T02:57:52.194Z,51.21
2022-11-26T03:00:18.651Z,51.25
2022-11-26T03:02:45.100Z,50.73
2022-11-26T03:05:11.579Z,51.75
2022-11-26T03:07:38.072Z,51.25
2022-11-26T03:12:59.338Z,51.48
2022-11-26T03:15:26.791Z,51.14
2022-11-26T03:17:54.166Z,51.51
2022-11-26T03:20:21.544Z,51.40
2022-11-26T03:22:48.923Z,51.36
2022-11-26T03:28:00.500Z,50.84
2022-11-26T03:30:27.890Z,51.40
2022-11-26T03:32:55.291Z,51.38
2022-11-26T03:35:21.747Z,51.44
2022-11-26T03:37:48.202Z,51.94
2022-11-26T03:40:15.563Z,51.61
2022-11-26T03:42:42.018Z,51.41
2022-11-26T03:45:08.537Z,51.22
2022-11-26T03:47:35.931Z,51.34
2022-11-26T03:50:02.378Z,51.21
2022-11-26T03:52:29.795Z,51.64
2022-11-26T03:54:56.239Z,51.22
2022-11-26T03:57:22.770Z,51.16
2022-11-26T03:59:50.915Z,51.68
2022-11-26T04:02:17.378Z,51.18
2022-11-26T04:04:44.768Z,51.45
2022-11-26T04:07:11.277Z,51.15
2022-11-26T04:09:37.790Z,51.09
2022-11-26T04:12:05.212Z,51.36
2022-11-26T04:14:31.721Z,51.24
2022-11-26T04:16:58.233Z,51.25
2022-11-26T04:19:24.713Z,51.25
2022-11-26T04:21:52.125Z,51.32
2022-11-26T04:24:19.496Z,51.39
2022-11-26T04:26:45.965Z,51.71
2022-11-26T04:29:13.338Z,51.34
2022-11-26T04:31:40.778Z,51.33
2022-11-26T04:34:07.253Z,51.04
2022-11-26T04:36:34.680Z,51.27
2022-11-26T04:39:01.138Z,50.95
2022-11-26T04:41:28.523Z,51.00
2022-11-26T04:43:54.997Z,51.33
2022-11-26T04:46:21.514Z,51.18
2022-11-26T04:48:48.007Z,51.05
2022-11-26T04:51:14.457Z,50.91
2022-11-26T04:53:40.956Z,50.94
2022-11-26T04:56:08.382Z,51.34
2022-11-26T05:01:19.643Z,51.14
2022-11-26T05:03:47.050Z,51.17
2022-11-26T05:06:13.602Z,51.10
2022-11-26T05:08:40.053Z,51.00
2022-11-26T05:11:07.447Z,50.83
2022-11-26T05:16:27.776Z,51.09
2022-11-26T05:18:54.300Z,51.04
2022-11-26T05:21:21.705Z,50.95
2022-11-26T05:23:49.111Z,51.47
2022-11-26T05:26:16.534Z,50.34
2022-11-26T05:31:28.268Z,50.47
2022-11-26T05:33:55.702Z,50.42
2022-11-26T05:36:23.143Z,50.65
2022-11-26T05:38:49.634Z,50.68
2022-11-26T05:41:17.053Z,50.43
2022-11-26T05:46:39.576Z,50.90
2022-11-26T05:49:07.047Z,50.01
2022-11-26T05:51:34.449Z,50.10
2022-11-26T05:54:00.908Z,49.90
2022-11-26T05:56:27.383Z,49.85
2022-11-26T06:01:37.995Z,49.76
2022-11-26T06:04:05.393Z,49.70
2022-11-26T06:06:31.844Z,49.95
2022-11-26T06:08:59.239Z,50.06
2022-11-26T06:11:26.644Z,49.74
2022-11-26T06:16:48.805Z,49.82
2022-11-26T06:19:15.446Z,49.49
2022-11-26T06:21:42.839Z,49.59
2022-11-26T06:24:10.435Z,49.65
2022-11-26T06:26:36.999Z,49.60
2022-11-26T06:31:48.679Z,49.49
2022-11-26T06:34:16.140Z,50.32
2022-11-26T06:36:43.531Z,50.04
2022-11-26T06:39:10.004Z,50.36
2022-11-26T06:41:37.403Z,50.59
2022-11-26T06:46:58.039Z,50.96
2022-11-26T06:49:25.616Z,50.85
2022-11-26T06:51:52.063Z,50.65
2022-11-26T06:54:19.450Z,51.24
2022-11-26T06:56:46.080Z,51.02
2022-11-26T07:01:57.770Z,51.14
2022-11-26T07:04:24.391Z,51.32
2022-11-26T07:06:50.859Z,51.28
2022-11-26T07:09:18.338Z,51.70
2022-11-26T07:11:45.718Z,51.23
2022-11-26T07:16:56.948Z,51.68
2022-11-26T07:19:24.338Z,51.61
2022-11-26T07:21:50.792Z,51.94
2022-11-26T07:24:18.201Z,51.89
2022-11-26T07:26:45.585Z,51.65
2022-11-26T07:32:07.161Z,51.88
2022-11-26T07:34:34.577Z,51.82
2022-11-26T07:37:02.005Z,51.72
2022-11-26T07:39:28.536Z,51.66
2022-11-26T07:41:54.999Z,47.91
2022-11-26T07:47:05.629Z,49.07
2022-11-26T07:49:32.106Z,49.14
2022-11-26T07:51:58.583Z,49.38
2022-11-26T07:54:25.069Z,48.86
2022-11-26T07:56:51.713Z,49.80
2022-11-26T08:02:03.601Z,50.10
2022-11-26T08:04:30.130Z,49.65
2022-11-26T08:06:56.619Z,49.94
2022-11-26T08:09:23.120Z,49.83
2022-11-26T08:11:50.563Z,49.83
2022-11-26T08:17:11.872Z,50.34
2022-11-26T08:19:39.388Z,50.92
2022-11-26T08:22:05.851Z,51.69
2022-11-26T08:24:32.322Z,51.78
2022-11-26T08:26:59.090Z,51.85
2022-11-26T08:32:11.183Z,52.31
2022-11-26T08:34:38.763Z,52.40
2022-11-26T08:37:06.474Z,52.91
2022-11-26T08:39:33.843Z,52.64
2022-11-26T08:42:00.247Z,52.52
2022-11-26T08:47:21.631Z,53.14
2022-11-26T08:49:49.311Z,53.73
2022-11-26T08:52:16.594Z,53.05
2022-11-26T08:54:45.454Z,52.88
2022-11-26T08:57:13.132Z,52.73
2022-11-26T09:02:27.361Z,53.15
2022-11-26T09:04:54.716Z,53.11
2022-11-26T09:07:22.063Z,53.03
2022-11-26T09:09:49.486Z,53.03
2022-11-26T09:12:15.935Z,52.87
2022-11-26T09:17:38.465Z,52.28
2022-11-26T09:20:05.899Z,52.80
2022-11-26T09:22:32.349Z,52.95
2022-11-26T09:24:58.881Z,52.63
2022-11-26T09:27:25.287Z,52.72
2022-11-26T09:32:36.001Z,52.85
2022-11-26T09:35:02.345Z,52.75
2022-11-26T09:37:28.836Z,52.83
2022-11-26T09:39:55.261Z,53.23
2022-11-26T09:42:22.621Z,52.74
2022-11-26T09:44:49.931Z,52.99
2022-11-26T09:47:16.392Z,53.38
2022-11-26T09:49:42.845Z,53.08
2022-11-26T09:52:09.292Z,54.04
2022-11-26T09:54:37.039Z,54.45
2022-11-26T09:57:03.681Z,54.56
2022-11-26T09:59:30.133Z,54.47
2022-11-26T10:01:57.577Z,54.55
2022-11-26T10:04:24.147Z,55.11
2022-11-26T10:06:50.587Z,55.33
2022-11-26T10:09:17.019Z,55.29
2022-11-26T10:11:43.437Z,55.39
2022-11-26T10:14:11.764Z,55.73
2022-11-26T10:16:39.078Z,55.45
2022-11-26T10:19:06.392Z,55.42
2022-11-26T10:21:57.742Z,55.10
2022-11-26T10:24:21.153Z,55.49
2022-11-26T10:26:47.663Z,55.73
2022-11-26T10:29:14.147Z,55.59
2022-11-26T10:31:42.445Z,56.22
2022-11-26T10:34:10.769Z,56.26
2022-11-26T10:36:37.257Z,56.51
2022-11-26T10:39:05.548Z,56.88
2022-11-26T10:41:32.145Z,56.61
2022-11-26T10:44:01.295Z,56.82
2022-11-26T10:46:29.642Z,56.60
2022-11-26T10:48:57.936Z,55.96
2022-11-26T10:51:26.622Z,55.19
2022-11-26T10:53:54.017Z,55.11
2022-11-26T10:56:22.324Z,54.87
2022-11-26T10:58:48.770Z,54.62
2022-11-26T11:01:16.169Z,54.49
2022-11-26T11:04:07.459Z,54.16
2022-11-26T11:06:29.136Z,54.32
2022-11-26T11:08:55.618Z,53.99
2022-11-26T11:11:22.095Z,53.97
2022-11-26T11:13:49.492Z,53.71
2022-11-26T11:16:16.893Z,53.92
2022-11-26T11:18:43.915Z,53.45
2022-11-26T11:21:11.305Z,53.38
2022-11-26T11:24:06.625Z,53.30
2022-11-26T11:26:24.234Z,53.37
2022-11-26T11:28:50.717Z,53.38
2022-11-26T11:31:18.175Z,53.84
2022-11-26T11:36:30.814Z,54.27
2022-11-26T11:38:57.313Z,53.92
2022-11-26T11:41:24.740Z,54.17
2022-11-26T11:43:51.226Z,54.14
2022-11-26T11:46:17.738Z,54.56
2022-11-26T11:51:40.190Z,55.02
2022-11-26T11:54:07.601Z,54.73
2022-11-26T11:56:34.987Z,55.26
2022-11-26T11:59:01.478Z,55.40
2022-11-26T12:01:28.869Z,55.58
2022-11-26T12:06:51.281Z,55.65
2022-11-26T12:09:18.706Z,55.58
2022-11-26T12:11:46.069Z,55.69
2022-11-26T12:14:12.776Z,55.72
2022-11-26T12:16:40.259Z,55.57
2022-11-26T12:21:50.762Z,56.23
2022-11-26T12:24:17.214Z,55.54
2022-11-26T12:26:44.631Z,56.37
2022-11-26T12:29:11.088Z,56.07
2022-11-26T12:31:37.787Z,56.33
2022-11-26T12:36:48.480Z,56.07
2022-11-26T12:39:15.863Z,56.37
2022-11-26T12:41:42.319Z,56.49
2022-11-26T12:44:08.815Z,56.32
2022-11-26T12:46:35.269Z,56.54
2022-11-26T12:51:55.695Z,56.86
2022-11-26T12:54:23.097Z,56.41
2022-11-26T12:56:49.537Z,56.71
2022-11-26T12:59:16.139Z,56.65
2022-11-26T13:01:42.594Z,56.36
2022-11-26T13:06:54.297Z,57.17
2022-11-26T13:09:20.774Z,57.09
2022-11-26T13:11:47.240Z,57.25
2022-11-26T13:14:13.703Z,57.03
2022-11-26T13:16:42.103Z,56.85
2022-11-26T13:21:52.726Z,57.18
2022-11-26T13:24:20.163Z,57.07
2022-11-26T13:26:47.593Z,57.27
2022-11-26T13:29:14.041Z,57.19
2022-11-26T13:31:40.521Z,57.15
2022-11-26T13:37:01.062Z,57.32
2022-11-26T13:39:28.460Z,57.25
2022-11-26T13:41:54.908Z,56.96
2022-11-26T13:44:22.821Z,57.28
2022-11-26T13:46:49.296Z,57.46
2022-11-26T13:52:01.421Z,57.45
2022-11-26T13:54:27.874Z,57.49
2022-11-26T13:56:54.368Z,57.49
2022-11-26T13:59:26.902Z,57.30
2022-11-26T14:01:55.912Z,57.31
2022-11-26T14:07:08.145Z,57.40
2022-11-26T14:09:35.539Z,57.24
2022-11-26T14:12:02.927Z,57.64
2022-11-26T14:14:29.380Z,57.56
2022-11-26T14:16:56.870Z,57.47
2022-11-26T14:22:08.417Z,57.43
2022-11-26T14:24:35.789Z,57.14
2022-11-26T14:27:03.252Z,57.63
2022-11-26T14:29:30.626Z,57.60
2022-11-26T14:31:57.191Z,57.77
2022-11-26T14:37:17.850Z,57.33
2022-11-26T14:39:45.222Z,57.73
2022-11-26T14:42:11.666Z,58.05
2022-11-26T14:44:39.284Z,57.76
2022-11-26T14:47:06.808Z,57.84
2022-11-26T14:52:28.182Z,57.32
2022-11-26T14:54:54.691Z,57.81
2022-11-26T14:57:22.035Z,57.53
2022-11-26T14:59:48.484Z,57.65
2022-11-26T15:02:15.005Z,57.52
2022-11-26T15:07:37.447Z,57.90
2022-11-26T15:10:03.966Z,57.50
2022-11-26T15:12:30.398Z,57.56
2022-11-26T15:14:58.085Z,57.79
2022-11-26T15:17:24.586Z,57.62
2022-11-26T15:22:46.014Z,58.00
2022-11-26T15:25:13.358Z,57.35
2022-11-26T15:27:40.678Z,58.13
2022-11-26T15:30:07.555Z,57.75
2022-11-26T15:32:33.994Z,57.63
2022-11-26T15:35:00.401Z,57.47
2022-11-26T15:37:27.761Z,57.75
2022-11-26T15:39:54.203Z,57.55
2022-11-26T15:42:20.678Z,57.02
2022-11-26T15:44:50.608Z,57.94
2022-11-26T15:47:17.999Z,57.66
2022-11-26T15:49:44.478Z,57.55
2022-11-26T15:52:10.945Z,58.13
2022-11-26T15:55:04.534Z,57.43
2022-11-26T15:57:25.148Z,57.46
2022-11-26T15:59:51.598Z,58.18
2022-11-26T16:02:18.078Z,57.72
2022-11-26T16:04:45.346Z,58.24
2022-11-26T16:07:14.489Z,57.91
2022-11-26T16:09:41.790Z,57.76
2022-11-26T16:12:09.043Z,57.81
2022-11-26T16:14:36.476Z,58.06
2022-11-26T16:17:08.477Z,58.11
2022-11-26T16:19:39.081Z,58.29
2022-11-26T16:22:05.724Z,57.57
2022-11-26T16:24:32.994Z,58.20
2022-11-26T16:27:00.279Z,58.29
2022-11-26T16:29:27.562Z,58.09
2022-11-26T16:31:55.822Z,58.28
2022-11-26T16:34:22.293Z,58.26
2022-11-26T16:36:50.855Z,58.65
2022-11-26T16:39:17.345Z,58.10
2022-11-26T16:41:44.613Z,58.16
2022-11-26T16:44:12.865Z,58.82
2022-11-26T16:46:42.770Z,58.22
2022-11-26T16:49:09.249Z,58.26
2022-11-26T16:51:36.460Z,58.77
2022-11-26T16:54:04.775Z,58.17
2022-11-26T16:56:33.068Z,58.72
2022-11-26T16:58:59.544Z,58.60
2022-11-26T17:01:26.021Z,58.32
2022-11-26T17:03:53.339Z,58.73
2022-11-26T17:06:21.713Z,58.63
2022-11-26T17:08:50.074Z,58.75
2022-11-26T17:11:16.672Z,58.51
2022-11-26T17:13:43.142Z,58.57
2022-11-26T17:16:11.490Z,58.45
2022-11-26T17:18:38.744Z,58.74
2022-11-26T17:21:05.228Z,58.20
2022-11-26T17:26:27.703Z,58.22
2022-11-26T17:28:56.029Z,58.03
2022-11-26T17:31:22.550Z,58.53
2022-11-26T17:33:50.929Z,58.46
2022-11-26T17:36:18.183Z,57.86
2022-11-26T17:41:30.686Z,58.06
2022-11-26T17:43:57.118Z,57.59
2022-11-26T17:46:23.687Z,57.90
2022-11-26T17:48:51.425Z,58.24
2022-11-26T17:51:20.868Z,57.62
2022-11-26T17:56:33.087Z,58.22
2022-11-26T17:59:00.323Z,57.62
2022-11-26T18:01:26.816Z,58.03
2022-11-26T18:03:55.153Z,57.43
2022-11-26T18:06:22.391Z,57.09
2022-11-26T18:11:35.857Z,57.08
2022-11-26T18:14:02.364Z,57.11
2022-11-26T18:16:28.795Z,57.27
2022-11-26T18:18:57.149Z,57.27
2022-11-26T18:21:24.392Z,56.99
2022-11-26T18:26:36.691Z,56.75
2022-11-26T18:29:03.143Z,57.28
2022-11-26T18:31:32.439Z,57.41
2022-11-26T18:34:01.796Z,57.17
2022-11-26T18:36:28.256Z,56.54
2022-11-26T18:41:54.548Z,56.95
2022-11-26T18:44:24.569Z,56.50
2022-11-26T18:46:54.546Z,56.41
2022-11-26T18:49:22.053Z,56.94
2022-11-26T18:51:49.358Z,56.46
2022-11-26T18:57:10.647Z,56.16
2022-11-26T18:59:37.506Z,56.19
2022-11-26T19:02:05.331Z,55.97
2022-11-26T19:04:31.870Z,56.23
2022-11-26T19:06:59.220Z,56.37
2022-11-26T19:12:10.504Z,56.30
2022-11-26T19:14:37.761Z,56.19
2022-11-26T19:17:04.327Z,56.01
2022-11-26T19:19:30.805Z,56.42
2022-11-26T19:22:01.418Z,56.27
2022-11-26T19:27:14.013Z,55.83
2022-11-26T19:29:40.584Z,56.44
2022-11-26T19:32:07.548Z,55.76
2022-11-26T19:34:34.807Z,55.83
2022-11-26T19:37:01.231Z,56.00
2022-11-26T19:42:22.389Z,55.69
2022-11-26T19:44:49.616Z,55.91
2022-11-26T19:47:16.964Z,56.09
2022-11-26T19:49:43.508Z,56.10
2022-11-26T19:52:11.788Z,56.42
2022-11-26T19:57:22.390Z,56.22
2022-11-26T19:59:48.925Z,56.40
2022-11-26T20:02:15.453Z,55.69
2022-11-26T20:04:42.909Z,55.94
2022-11-26T20:07:09.394Z,56.29
2022-11-26T20:12:19.724Z,56.65
2022-11-26T20:14:46.143Z,56.91
2022-11-26T20:17:13.480Z,56.88
2022-11-26T20:19:41.124Z,57.05
2022-11-26T20:22:08.550Z,57.00
2022-11-26T20:27:28.824Z,56.96
2022-11-26T20:29:56.138Z,56.87
2022-11-26T20:32:24.388Z,56.96
2022-11-26T20:34:52.671Z,57.04
2022-11-26T20:37:19.944Z,57.30
2022-11-26T20:42:33.270Z,57.72
2022-11-26T20:45:01.580Z,57.35
2022-11-26T20:47:28.822Z,57.41
2022-11-26T20:49:57.115Z,57.19
2022-11-26T20:52:25.439Z,57.60
2022-11-26T20:57:48.801Z,57.94
2022-11-26T21:00:15.331Z,57.79
2022-11-26T21:02:43.666Z,57.29
2022-11-26T21:05:11.992Z,57.69
2022-11-26T21:07:41.240Z,57.50
2022-11-26T21:12:53.771Z,57.59
2022-11-26T21:15:20.246Z,57.68
2022-11-26T21:17:49.480Z,57.68
2022-11-26T21:20:16.087Z,57.46
2022-11-26T21:22:42.492Z,57.77
2022-11-26T21:28:07.336Z,57.68
2022-11-26T21:30:36.592Z,57.76
2022-11-26T21:33:09.224Z,57.58
2022-11-26T21:35:38.113Z,57.39
2022-11-26T21:38:04.510Z,57.88
2022-11-26T21:43:16.726Z,56.03
2022-11-26T21:45:43.231Z,54.58
2022-11-26T21:48:09.747Z,53.81
2022-11-26T21:50:36.219Z,52.91
2022-11-26T21:53:02.761Z,52.23
2022-11-26T21:58:14.085Z,52.37
2022-11-26T22:00:40.554Z,52.47
2022-11-26T22:03:11.255Z,53.15
2022-11-26T22:05:38.962Z,53.39
2022-11-26T22:08:06.496Z,53.50
2022-11-26T22:10:36.108Z,53.89
2022-11-26T22:13:03.747Z,54.02
2022-11-26T22:15:30.244Z,54.57
2022-11-26T22:17:56.688Z,54.75
2022-11-26T22:20:23.123Z,54.77
2022-11-26T22:22:50.498Z,55.12
2022-11-26T22:25:17.757Z,55.21
2022-11-26T22:27:45.026Z,55.08
2022-11-26T22:30:12.286Z,55.70
2022-11-26T22:32:38.761Z,55.61
2022-11-26T22:35:06.057Z,55.50
2022-11-26T22:37:34.364Z,55.31
2022-11-26T22:40:00.855Z,55.77
2022-11-26T22:42:27.325Z,55.83
2022-11-26T22:44:53.834Z,55.56
2022-11-26T22:47:21.100Z,56.16
2022-11-26T22:49:48.380Z,55.70
2022-11-26T22:52:16.721Z,55.72
2022-11-26T22:54:43.195Z,55.65
2022-11-26T22:57:09.673Z,55.60
2022-11-26T22:59:36.082Z,55.98
2022-11-26T23:02:04.385Z,56.14
2022-11-26T23:04:31.648Z,55.75
2022-11-26T23:06:59.964Z,55.85
2022-11-26T23:09:28.306Z,56.04
2022-11-26T23:11:55.566Z,55.98
2022-11-26T23:14:23.877Z,55.90
2022-11-26T23:16:50.437Z,56.03
2022-11-26T23:19:17.673Z,55.85
2022-11-26T23:21:45.935Z,55.91
2022-11-26T23:24:15.156Z,56.17
2022-11-26T23:26:43.481Z,55.94
2022-11-26T23:32:07.464Z,55.68
2022-11-26T23:34:33.896Z,55.65
2022-11-26T23:37:01.122Z,55.67
2022-11-26T23:39:29.389Z,55.87
2022-11-26T23:41:55.845Z,55.51
2022-11-26T23:47:17.969Z,55.54
2022-11-26T23:49:44.496Z,55.24
2022-11-26T23:52:12.809Z,55.41
2022-11-26T23:54:41.102Z,55.18
2022-11-26T23:57:14.795Z,55.15
